createdAt,value
2023-01-05T00:01:47.143Z,70.34
2023-01-05T00:04:14.978Z,70.18
2023-01-05T00:06:43.193Z,70.22
2023-01-05T00:09:14.253Z,70.14
2023-01-05T00:11:59.224Z,70.06
2023-01-05T00:14:48.256Z,69.98
2023-01-05T00:17:35.407Z,69.87
2023-01-05T00:20:21.686Z,69.72
2023-01-05T00:22:50.942Z,70.04
2023-01-05T00:25:20.519Z,70.17
2023-01-05T00:27:51.321Z,70.32
2023-01-05T00:30:22.734Z,70.80
2023-01-05T00:32:50.905Z,70.94
2023-01-05T00:35:18.686Z,71.29
2023-01-05T00:37:46.307Z,71.31
2023-01-05T00:40:15.540Z,71.26
2023-01-05T00:42:43.286Z,71.31
2023-01-05T00:45:13.087Z,71.63
2023-01-05T00:47:42.521Z,71.38
2023-01-05T00:50:14.169Z,71.13
2023-01-05T00:52:41.835Z,71.04
2023-01-05T00:55:09.917Z,70.98
2023-01-05T00:57:37.786Z,71.27
2023-01-05T01:00:06.856Z,71.40
2023-01-05T01:02:34.545Z,71.56
2023-01-05T01:05:03.578Z,71.87
2023-01-05T01:07:31.121Z,71.68
2023-01-05T01:09:58.884Z,71.42
2023-01-05T01:12:26.538Z,71.67
2023-01-05T01:14:54.145Z,71.65
2023-01-05T01:17:21.827Z,71.53
2023-01-05T01:19:49.440Z,71.72
2023-01-05T01:22:18.336Z,71.97
2023-01-05T01:24:45.986Z,72.12
2023-01-05T01:27:13.612Z,71.88
2023-01-05T01:29:41.145Z,71.85
2023-01-05T01:32:08.711Z,71.75
2023-01-05T01:34:36.898Z,71.88
2023-01-05T01:37:04.512Z,71.85
2023-01-05T01:39:33.856Z,72.01
2023-01-05T01:42:01.644Z,71.58
2023-01-05T01:44:51.473Z,71.85
2023-01-05T01:47:37.615Z,71.81
2023-01-05T01:50:11.311Z,71.82
2023-01-05T01:52:40.111Z,72.09
2023-01-05T01:55:10.381Z,72.25
2023-01-05T01:57:38.213Z,71.98
2023-01-05T02:00:08.835Z,71.97
2023-01-05T02:02:36.490Z,71.89
2023-01-05T02:05:07.249Z,71.81
2023-01-05T02:07:38.136Z,71.79
2023-01-05T02:10:06.751Z,71.77
2023-01-05T02:12:49.822Z,72.08
2023-01-05T02:15:25.844Z,72.15
2023-01-05T02:18:08.067Z,72.38
2023-01-05T02:20:58.032Z,72.09
2023-01-05T02:23:58.984Z,72.08
2023-01-05T02:27:04.111Z,72.29
2023-01-05T02:29:52.159Z,72.00
2023-01-05T02:32:23.963Z,71.98
2023-01-05T02:35:04.100Z,72.12
2023-01-05T02:37:37.650Z,72.04
2023-01-05T02:40:10.527Z,72.22
2023-01-05T02:42:40.033Z,72.22
2023-01-05T02:45:09.377Z,72.81
2023-01-05T02:47:41.458Z,72.60
2023-01-05T02:50:13.666Z,72.15
2023-01-05T02:52:46.581Z,72.55
2023-01-05T02:55:17.618Z,72.36
2023-01-05T02:57:50.860Z,72.37
2023-01-05T03:00:23.415Z,72.35
2023-01-05T03:02:57.518Z,72.54
2023-01-05T03:05:30.607Z,72.52
2023-01-05T03:08:06.822Z,72.61
2023-01-05T03:10:59.747Z,72.66
2023-01-05T03:13:43.575Z,72.82
2023-01-05T03:16:16.212Z,72.92
2023-01-05T03:19:02.893Z,73.00
2023-01-05T03:21:45.242Z,72.99
2023-01-05T03:24:30.879Z,73.26
2023-01-05T03:27:16.326Z,73.76
2023-01-05T03:30:01.555Z,74.19
2023-01-05T03:32:48.862Z,74.53
2023-01-05T03:35:33.885Z,75.10
2023-01-05T03:38:12.284Z,75.05
2023-01-05T03:40:44.203Z,75.23
2023-01-05T03:43:11.806Z,75.10
2023-01-05T03:45:42.942Z,75.09
2023-01-05T03:48:10.431Z,75.04
2023-01-05T03:50:39.285Z,75.01
2023-01-05T03:53:08.005Z,74.92
2023-01-05T03:55:35.580Z,74.99
2023-01-05T03:58:03.121Z,75.15
2023-01-05T04:00:33.497Z,75.43
2023-01-05T04:03:01.139Z,75.37
2023-01-05T04:05:28.811Z,75.32
2023-01-05T04:07:57.655Z,75.38
2023-01-05T04:10:25.154Z,75.29
2023-01-05T04:12:52.686Z,75.32
2023-01-05T04:15:20.234Z,75.36
2023-01-05T04:17:47.720Z,75.22
2023-01-05T04:20:15.451Z,75.11
2023-01-05T04:22:43.122Z,75.18
2023-01-05T04:25:12.263Z,75.06
2023-01-05T04:27:39.736Z,75.23
2023-01-05T04:30:08.678Z,75.26
2023-01-05T04:32:36.463Z,75.17
2023-01-05T04:35:10.874Z,75.22
2023-01-05T04:37:38.951Z,75.07
2023-01-05T04:40:07.695Z,75.44
2023-01-05T04:42:36.604Z,75.54
2023-01-05T04:45:04.439Z,75.61
2023-01-05T04:47:31.961Z,75.66
2023-01-05T04:49:59.541Z,75.68
2023-01-05T04:52:27.021Z,76.10
2023-01-05T04:54:54.507Z,76.24
2023-01-05T04:57:21.988Z,76.33
2023-01-05T04:59:50.811Z,76.67
2023-01-05T05:02:18.397Z,76.53
2023-01-05T05:04:46.054Z,76.58
2023-01-05T05:07:13.590Z,76.63
2023-01-05T05:09:41.099Z,76.82
2023-01-05T05:12:08.912Z,76.84
2023-01-05T05:14:36.509Z,76.86
2023-01-05T05:17:05.323Z,77.00
2023-01-05T05:19:33.550Z,76.95
2023-01-05T05:22:01.037Z,77.17
2023-01-05T05:24:28.500Z,77.08
2023-01-05T05:26:57.242Z,77.14
2023-01-05T05:29:24.802Z,77.28
2023-01-05T05:31:52.394Z,77.33
2023-01-05T05:34:21.296Z,77.50
2023-01-05T05:36:48.886Z,77.48
2023-01-05T05:39:17.090Z,77.58
2023-01-05T05:41:44.623Z,77.62
2023-01-05T05:44:12.186Z,77.81
2023-01-05T05:46:39.773Z,77.90
2023-01-05T05:49:08.742Z,77.93
2023-01-05T05:51:37.623Z,77.90
2023-01-05T05:54:05.441Z,77.91
2023-01-05T05:56:32.918Z,77.90
2023-01-05T05:59:01.815Z,78.15
2023-01-05T06:01:29.853Z,78.14
2023-01-05T06:03:57.509Z,78.03
2023-01-05T06:06:25.167Z,78.32
2023-01-05T06:08:54.137Z,78.37
2023-01-05T06:11:21.682Z,78.45
2023-01-05T06:13:49.721Z,78.41
2023-01-05T06:16:17.268Z,78.58
2023-01-05T06:18:44.782Z,78.46
2023-01-05T06:21:12.309Z,78.66
2023-01-05T06:23:39.891Z,78.77
2023-01-05T06:26:09.272Z,78.75
2023-01-05T06:28:36.784Z,78.65
2023-01-05T06:31:04.498Z,78.68
2023-01-05T06:33:34.065Z,78.90
2023-01-05T06:36:01.936Z,78.75
2023-01-05T06:38:30.319Z,78.80
2023-01-05T06:40:59.382Z,78.67
2023-01-05T06:43:28.419Z,78.98
2023-01-05T06:56:36.493Z,78.72
2023-01-05T07:04:33.151Z,78.20
2023-01-05T07:07:00.641Z,78.40
2023-01-05T07:09:28.125Z,78.50
2023-01-05T07:11:55.731Z,78.39
2023-01-05T07:14:23.204Z,78.40
2023-01-05T07:16:50.828Z,78.19
2023-01-05T07:19:18.366Z,78.10
2023-01-05T07:21:50.587Z,77.55
2023-01-05T07:24:22.354Z,77.18
2023-01-05T07:26:50.095Z,77.07
2023-01-05T07:29:17.802Z,77.16
2023-01-05T07:31:47.465Z,76.96
2023-01-05T07:34:15.051Z,77.10
2023-01-05T07:36:42.561Z,77.16
2023-01-05T07:39:11.433Z,77.07
2023-01-05T07:41:38.995Z,76.97
2023-01-05T07:44:06.572Z,77.11
2023-01-05T07:46:34.121Z,77.16
2023-01-05T07:49:02.683Z,77.14
2023-01-05T07:51:30.224Z,77.36
2023-01-05T07:53:58.027Z,77.29
2023-01-05T07:56:26.975Z,77.06
2023-01-05T07:58:54.507Z,76.75
2023-01-05T08:01:22.188Z,76.94
2023-01-05T08:03:49.832Z,76.96
2023-01-05T08:06:20.289Z,77.15
2023-01-05T08:08:48.549Z,76.84
2023-01-05T08:11:17.733Z,76.92
2023-01-05T08:14:02.632Z,76.89
2023-01-05T08:16:32.337Z,76.85
2023-01-05T08:19:01.379Z,76.46
2023-01-05T08:21:30.207Z,76.42
2023-01-05T08:23:59.641Z,76.40
2023-01-05T08:26:27.214Z,76.35
2023-01-05T08:28:56.075Z,76.53
2023-01-05T08:31:26.110Z,76.61
2023-01-05T08:33:57.831Z,76.79
2023-01-05T08:36:25.572Z,76.62
2023-01-05T08:38:53.804Z,76.57
2023-01-05T08:41:25.562Z,76.47
2023-01-05T08:43:54.304Z,76.06
2023-01-05T08:46:25.607Z,76.07
2023-01-05T08:48:54.715Z,76.23
2023-01-05T08:51:22.763Z,75.83
2023-01-05T08:53:50.621Z,75.92
2023-01-05T08:56:18.443Z,75.97
2023-01-05T08:58:45.935Z,75.80
2023-01-05T09:01:15.401Z,75.41
2023-01-05T09:03:44.926Z,75.41
2023-01-05T09:06:13.812Z,74.95
2023-01-05T09:08:42.637Z,74.91
2023-01-05T09:11:12.408Z,74.96
2023-01-05T09:13:41.063Z,75.04
2023-01-05T09:16:11.090Z,74.83
2023-01-05T09:18:39.396Z,74.56
2023-01-05T09:21:09.447Z,74.48
2023-01-05T09:23:37.757Z,74.50
2023-01-05T09:26:06.469Z,74.70
2023-01-05T09:28:35.573Z,74.24
2023-01-05T09:31:08.162Z,74.22
2023-01-05T09:33:35.734Z,74.37
2023-01-05T09:36:03.218Z,74.25
2023-01-05T09:38:32.138Z,73.63
2023-01-05T09:41:04.169Z,73.43
2023-01-05T09:43:37.325Z,73.48
2023-01-05T09:46:10.331Z,73.64
2023-01-05T09:48:42.007Z,73.53
2023-01-05T09:51:10.494Z,73.58
2023-01-05T09:53:40.685Z,73.63
2023-01-05T09:56:50.331Z,74.01
2023-01-05T09:59:15.743Z,73.94
2023-01-05T10:01:44.344Z,73.81
2023-01-05T10:04:16.845Z,73.79
2023-01-05T10:06:47.436Z,73.34
2023-01-05T10:09:21.066Z,73.07
2023-01-05T10:12:12.126Z,73.05
2023-01-05T10:14:42.718Z,72.63
2023-01-05T10:17:40.495Z,72.46
2023-01-05T10:20:03.072Z,72.71
2023-01-05T10:22:41.063Z,72.38
2023-01-05T10:25:20.327Z,72.65
2023-01-05T10:27:56.951Z,72.42
2023-01-05T10:30:27.229Z,72.35
2023-01-05T10:33:27.752Z,72.06
2023-01-05T10:36:03.406Z,72.20
2023-01-05T10:38:50.104Z,72.51
2023-01-05T10:41:25.363Z,71.80
2023-01-05T10:44:08.166Z,72.45
2023-01-05T10:46:43.743Z,71.82
2023-01-05T10:49:20.651Z,71.42
2023-01-05T10:51:56.073Z,71.77
2023-01-05T10:54:36.876Z,71.17
2023-01-05T10:57:46.969Z,71.21
2023-01-05T11:00:18.644Z,70.52
2023-01-05T11:02:50.694Z,70.10
2023-01-05T11:05:26.571Z,70.60
2023-01-05T11:07:56.969Z,69.64
2023-01-05T11:10:28.874Z,69.64
2023-01-05T11:13:02.525Z,68.93
2023-01-05T11:15:33.274Z,68.69
2023-01-05T11:18:00.894Z,68.82
2023-01-05T11:20:29.993Z,68.03
2023-01-05T11:22:58.364Z,67.88
2023-01-05T11:25:29.091Z,67.18
2023-01-05T11:28:10.005Z,67.29
2023-01-05T11:30:40.863Z,67.23
2023-01-05T11:33:17.347Z,67.07
2023-01-05T11:35:50.221Z,66.79
2023-01-05T11:38:24.881Z,66.75
2023-01-05T11:40:53.914Z,66.66
2023-01-05T11:43:22.960Z,65.79
2023-01-05T11:45:56.006Z,65.45
2023-01-05T11:48:27.851Z,65.09
2023-01-05T11:50:57.410Z,65.11
2023-01-05T11:53:41.746Z,64.47
2023-01-05T11:56:21.378Z,63.43
2023-01-05T11:58:50.563Z,62.80
2023-01-05T12:01:47.446Z,62.28
2023-01-05T12:04:30.328Z,62.44
2023-01-05T12:07:24.200Z,62.21
2023-01-05T12:09:59.327Z,62.17
2023-01-05T12:12:46.241Z,61.57
2023-01-05T12:15:35.573Z,61.26
2023-01-05T12:18:17.043Z,62.11
2023-01-05T12:20:57.298Z,62.16
2023-01-05T12:23:49.076Z,62.04
2023-01-05T12:26:25.966Z,62.24
2023-01-05T12:35:25.232Z,61.92
2023-01-05T12:38:08.857Z,62.15
2023-01-05T12:40:52.097Z,61.88
2023-01-05T12:43:34.027Z,62.42
2023-01-05T12:46:18.567Z,62.01
2023-01-05T12:48:48.591Z,62.20
2023-01-05T12:51:23.353Z,62.33
2023-01-05T12:53:57.773Z,62.11
2023-01-05T12:56:30.920Z,61.73
2023-01-05T12:59:10.717Z,62.10
2023-01-05T13:01:43.406Z,62.14
2023-01-05T13:04:19.424Z,61.69
2023-01-05T13:06:52.894Z,61.61
2023-01-05T13:09:25.817Z,61.77
2023-01-05T13:11:59.198Z,61.92
2023-01-05T13:14:31.177Z,62.00
2023-01-05T13:17:02.281Z,61.97
2023-01-05T13:19:32.318Z,62.01
2023-01-05T13:22:05.529Z,62.36
2023-01-05T13:24:38.050Z,62.55
2023-01-05T13:27:05.772Z,62.52
2023-01-05T13:29:37.036Z,62.40
2023-01-05T13:32:26.794Z,62.61
2023-01-05T13:35:10.034Z,63.39
2023-01-05T13:38:07.326Z,63.10
2023-01-05T13:40:57.399Z,63.27
2023-01-05T13:43:50.359Z,63.16
2023-01-05T13:46:32.578Z,63.45
2023-01-05T13:49:20.000Z,63.18
2023-01-05T13:51:58.745Z,63.44
2023-01-05T13:54:59.819Z,63.52
2023-01-05T13:57:31.000Z,64.14
2023-01-05T14:00:07.252Z,64.60
2023-01-05T14:02:40.095Z,65.16
2023-01-05T14:05:17.616Z,65.29
2023-01-05T14:07:45.347Z,65.31
2023-01-05T14:10:24.349Z,65.47
2023-01-05T14:12:55.086Z,65.18
2023-01-05T14:18:11.981Z,65.21
2023-01-05T14:21:09.047Z,64.71
2023-01-05T14:30:33.875Z,64.46
2023-01-05T14:33:47.715Z,64.43
2023-01-05T14:36:48.272Z,64.32
2023-01-05T15:07:44.566Z,65.70
2023-01-05T15:11:19.847Z,65.27
2023-01-05T15:14:36.214Z,65.90
2023-01-05T16:26:01.198Z,65.55
2023-01-05T16:28:29.374Z,65.50
2023-01-05T16:30:58.928Z,65.59
2023-01-05T16:33:35.322Z,64.89
2023-01-05T16:36:13.428Z,65.84
2023-01-05T16:38:41.759Z,65.26
2023-01-05T16:41:20.371Z,65.33
2023-01-05T16:43:53.598Z,65.08
2023-01-05T16:46:40.642Z,65.29
2023-01-05T16:49:27.942Z,65.43
2023-01-05T16:51:57.548Z,65.25
2023-01-05T16:54:36.663Z,65.41
2023-01-05T16:57:29.072Z,65.64
2023-01-05T16:59:57.460Z,65.42
2023-01-05T17:02:31.838Z,65.08
2023-01-05T17:04:59.427Z,65.40
2023-01-05T17:07:27.059Z,65.53
2023-01-05T17:09:55.154Z,65.12
2023-01-05T17:12:24.012Z,65.13
2023-01-05T17:14:51.637Z,65.73
2023-01-05T17:23:36.086Z,65.20
2023-01-05T17:26:07.515Z,65.17
2023-01-05T17:28:36.509Z,64.77
2023-01-05T17:31:04.559Z,65.03
2023-01-05T17:33:32.436Z,65.14
2023-01-05T17:36:01.688Z,65.45
2023-01-05T17:38:29.253Z,64.77
2023-01-05T17:40:58.723Z,64.71
2023-01-05T17:43:26.542Z,65.19
2023-01-05T17:45:55.627Z,65.02
2023-01-05T17:48:24.925Z,64.43
2023-01-05T17:50:54.163Z,64.33
2023-01-05T17:53:22.636Z,64.33
2023-01-05T17:55:50.159Z,64.25
2023-01-05T17:58:17.674Z,64.40
2023-01-05T18:03:28.007Z,64.92
2023-01-05T18:05:55.524Z,64.88
2023-01-05T18:08:23.101Z,65.01
2023-01-05T18:10:52.925Z,64.65
2023-01-05T18:13:22.560Z,64.31
2023-01-05T18:15:52.907Z,64.26
2023-01-05T18:18:22.000Z,64.79
2023-01-05T18:20:52.210Z,65.05
2023-01-05T18:23:20.740Z,64.73
2023-01-05T18:25:48.513Z,64.53
2023-01-05T18:28:16.133Z,64.93
2023-01-05T18:30:44.117Z,64.68
2023-01-05T18:35:44.616Z,64.71
2023-01-05T18:38:13.533Z,65.60
2023-01-05T18:40:41.319Z,65.43
2023-01-05T18:43:08.821Z,65.11
2023-01-05T18:45:40.238Z,65.71
2023-01-05T18:48:08.788Z,65.82
2023-01-05T18:50:40.701Z,65.56
2023-01-05T18:53:08.229Z,65.51
2023-01-05T18:55:40.896Z,65.29
2023-01-05T18:58:08.574Z,65.52
2023-01-05T19:00:36.240Z,65.47
2023-01-05T19:03:03.868Z,65.28
2023-01-05T19:05:31.429Z,65.47
2023-01-05T19:07:58.939Z,65.80
2023-01-05T19:10:26.598Z,66.19
2023-01-05T19:12:55.442Z,65.69
2023-01-05T19:15:22.936Z,65.51
2023-01-05T19:17:53.275Z,65.47
2023-01-05T19:20:21.060Z,65.95
2023-01-05T19:22:48.633Z,65.59
2023-01-05T19:25:16.224Z,65.60
2023-01-05T19:27:45.404Z,66.15
2023-01-05T19:30:16.908Z,66.45
2023-01-05T19:32:44.509Z,66.56
2023-01-05T19:35:12.129Z,67.01
2023-01-05T19:37:40.568Z,66.41
2023-01-05T19:40:09.267Z,66.89
2023-01-05T19:42:36.830Z,66.77
2023-01-05T19:45:04.870Z,66.36
2023-01-05T19:47:36.395Z,66.93
2023-01-05T19:50:04.077Z,66.15
2023-01-05T19:52:31.563Z,66.18
2023-01-05T19:54:59.085Z,66.06
2023-01-05T19:57:28.573Z,65.97
2023-01-05T19:59:56.071Z,66.11
2023-01-05T20:02:23.773Z,66.01
2023-01-05T20:04:53.161Z,66.21
2023-01-05T20:07:20.779Z,66.57
2023-01-05T20:09:50.074Z,66.57
2023-01-05T20:12:17.861Z,66.51
2023-01-05T20:14:45.688Z,66.25
2023-01-05T20:17:14.343Z,66.52
2023-01-05T20:19:42.221Z,66.27
2023-01-05T20:22:14.831Z,67.02
2023-01-05T20:24:42.781Z,66.80
2023-01-05T20:27:12.918Z,67.28
2023-01-05T20:29:43.664Z,66.65
2023-01-05T20:35:00.914Z,67.13
2023-01-05T20:37:31.331Z,67.27
2023-01-05T20:40:00.359Z,67.38
2023-01-05T20:42:28.760Z,67.59
2023-01-05T20:44:56.307Z,67.90
2023-01-05T20:47:23.823Z,68.49
2023-01-05T20:49:51.506Z,68.69
2023-01-05T20:52:19.051Z,68.71
2023-01-05T20:54:49.574Z,68.96
2023-01-05T20:57:17.063Z,69.10
2023-01-05T20:59:44.545Z,69.25
2023-01-05T21:02:22.838Z,69.31
2023-01-05T21:04:51.830Z,69.60
2023-01-05T21:07:20.181Z,69.84
2023-01-05T21:09:50.238Z,70.43
2023-01-05T21:12:18.316Z,70.38
2023-01-05T21:14:45.896Z,70.88
2023-01-05T21:17:13.498Z,71.35
2023-01-05T21:19:40.982Z,71.47
2023-01-05T21:22:08.727Z,71.54
2023-01-05T21:24:36.773Z,71.90
2023-01-05T21:27:05.828Z,72.33
2023-01-05T21:29:33.917Z,72.34
2023-01-05T21:32:01.422Z,72.52
2023-01-05T21:34:29.036Z,72.66
2023-01-05T21:36:56.518Z,73.06
2023-01-05T21:39:25.936Z,73.15
2023-01-05T21:42:11.948Z,73.50
2023-01-05T21:44:40.953Z,73.32
2023-01-05T21:47:08.597Z,73.35
2023-01-05T21:49:36.704Z,73.41
2023-01-05T21:52:22.127Z,73.51
2023-01-05T21:55:07.378Z,73.45
2023-01-05T21:57:34.913Z,73.48
2023-01-05T22:00:04.805Z,73.70
2023-01-05T22:02:32.342Z,73.59
2023-01-05T22:04:59.825Z,73.90
2023-01-05T22:07:27.357Z,73.79
2023-01-05T22:09:54.929Z,73.87
2023-01-05T22:12:22.428Z,73.94
2023-01-05T22:14:50.868Z,74.16
2023-01-05T22:17:19.709Z,74.21
2023-01-05T22:19:47.228Z,74.02
2023-01-05T22:22:14.980Z,74.14
2023-01-05T22:24:42.437Z,74.12
2023-01-05T22:27:09.905Z,74.28
2023-01-05T22:29:37.404Z,74.29
2023-01-05T22:32:05.777Z,74.26
2023-01-05T22:34:36.365Z,74.41
2023-01-05T22:37:03.870Z,74.33
2023-01-05T22:39:31.375Z,74.40
2023-01-05T22:41:58.848Z,74.48
2023-01-05T22:44:26.331Z,74.47
2023-01-05T22:46:53.826Z,74.67
2023-01-05T22:49:21.285Z,74.68
2023-01-05T22:51:50.134Z,74.67
2023-01-05T22:54:17.610Z,74.84
2023-01-05T22:56:45.096Z,74.64
2023-01-05T22:59:12.627Z,74.60
2023-01-05T23:01:43.240Z,74.61
2023-01-05T23:04:10.800Z,74.80
2023-01-05T23:06:38.465Z,74.75
2023-01-05T23:09:10.514Z,74.92
2023-01-05T23:11:40.628Z,74.68
2023-01-05T23:14:09.920Z,74.52
2023-01-05T23:16:38.634Z,74.62
2023-01-05T23:19:07.617Z,74.48
2023-01-05T23:21:35.286Z,74.52
2023-01-05T23:24:02.947Z,74.51
2023-01-05T23:26:31.875Z,74.43
2023-01-05T23:28:59.869Z,74.44
2023-01-05T23:31:27.747Z,74.24
2023-01-05T23:33:55.780Z,74.45
2023-01-05T23:36:24.556Z,74.18
2023-01-05T23:38:52.211Z,74.03
2023-01-05T23:41:20.633Z,74.29
2023-01-05T23:43:49.508Z,74.25
2023-01-05T23:46:20.029Z,74.57
2023-01-05T23:48:47.753Z,74.54
2023-01-05T23:51:16.861Z,74.56
2023-01-05T23:53:45.492Z,75.00
2023-01-05T23:56:14.828Z,74.91
2023-01-05T23:58:42.950Z,75.14
